EWG8Y EGCC-EDDH
Flight info
| Callsign | EWG8Y |
|---|---|
| Flight time | 1h 47m |
| Altitude | 33000 |
| Route | DESIG L603 LAMSO DCT PETIK P154 SPY N873 ANDIK M105 RIBSO RIBSO7A |
| Aircraft | A320/M-SDE3FGHIRWY/LB1 |
Departure
| Time | 2026-04-30 17:53 |
|---|---|
| Airport | Manchester Airport (EGCC) |
Arrival
| Time | 2026-04-30 19:40 |
|---|---|
| Airport | Hamburg Helmut Schmidt Airport (EDDH) |
| Time | Latitude | Longitude | Altitude | Speed | Heading |
|---|---|---|---|---|---|
| 2026-04-30 17:39 | 53.36021 | -2.27389 | 233 ft | 0 kts | 277° |
| 2026-04-30 17:41 | 53.36018 | -2.27325 | 235 ft | 2 kts | 219° |
| 2026-04-30 17:42 | 53.36029 | -2.27319 | 234 ft | 0 kts | 184° |
| 2026-04-30 17:44 | 53.35853 | -2.27318 | 233 ft | 13 kts | 179° |
| 2026-04-30 17:44 | 53.35702 | -2.27505 | 233 ft | 12 kts | 232° |
| 2026-04-30 17:46 | 53.35402 | -2.28009 | 233 ft | 12 kts | 225° |
| 2026-04-30 17:47 | 53.35269 | -2.28230 | 233 ft | 12 kts | 226° |
| 2026-04-30 17:48 | 53.35042 | -2.28691 | 233 ft | 16 kts | 229° |
| 2026-04-30 17:48 | 53.34933 | -2.28884 | 233 ft | 3 kts | 225° |
| 2026-04-30 17:49 | 53.34798 | -2.29072 | 234 ft | 0 kts | 185° |
| 2026-04-30 17:50 | 53.34686 | -2.29021 | 233 ft | 12 kts | 145° |
| 2026-04-30 17:51 | 53.34701 | -2.28893 | 233 ft | 0 kts | 48° |
| 2026-04-30 17:52 | 53.35832 | -2.26540 | 550 ft | 171 kts | 50° |
| 2026-04-30 17:53 | 53.40668 | -2.16401 | 4800 ft | 267 kts | 57° |
| 2026-04-30 17:54 | 53.45497 | -2.06041 | 9234 ft | 294 kts | 56° |
| 2026-04-30 17:55 | 53.51135 | -1.94112 | 12029 ft | 365 kts | 51° |
| 2026-04-30 17:56 | 53.60797 | -1.94396 | 15478 ft | 402 kts | 310° |
| 2026-04-30 17:57 | 53.67313 | -2.02954 | 17996 ft | 418 kts | 352° |
| 2026-04-30 17:58 | 53.74762 | -1.97119 | 20212 ft | 411 kts | 62° |
| 2026-04-30 17:59 | 53.79979 | -1.79882 | 22995 ft | 422 kts | 67° |
| 2026-04-30 18:00 | 53.85440 | -1.61993 | 25187 ft | 436 kts | 66° |
| 2026-04-30 18:00 | 53.89726 | -1.48241 | 26617 ft | 445 kts | 66° |
| 2026-04-30 18:01 | 53.92680 | -1.38916 | 27518 ft | 451 kts | 66° |
| 2026-04-30 18:02 | 53.97215 | -1.24830 | 28785 ft | 459 kts | 65° |
| 2026-04-30 18:02 | 54.03651 | -1.12765 | 29864 ft | 485 kts | 24° |
| 2026-04-30 18:03 | 54.13465 | -1.14529 | 30703 ft | 494 kts | 323° |
| 2026-04-30 18:04 | 54.17755 | -1.29202 | 31677 ft | 464 kts | 261° |
| 2026-04-30 18:05 | 54.10575 | -1.44745 | 33047 ft | 429 kts | 205° |
| 2026-04-30 18:06 | 53.99732 | -1.51532 | 33245 ft | 414 kts | 173° |
| 2026-04-30 18:07 | 53.90754 | -1.40468 | 33242 ft | 425 kts | 125° |
| 2026-04-30 18:08 | 53.86065 | -1.27704 | 33246 ft | 426 kts | 125° |
| 2026-04-30 18:10 | 53.74017 | -0.95322 | 33240 ft | 425 kts | 125° |
| 2026-04-30 18:11 | 53.62402 | -0.64515 | 33247 ft | 426 kts | 125° |
| 2026-04-30 18:13 | 53.54407 | -0.43515 | 33254 ft | 426 kts | 125° |
| 2026-04-30 18:14 | 53.46384 | -0.22638 | 33256 ft | 426 kts | 125° |
| 2026-04-30 18:15 | 53.36714 | 0.02300 | 33242 ft | 426 kts | 126° |
| 2026-04-30 18:16 | 53.30227 | 0.18886 | 33242 ft | 426 kts | 125° |
| 2026-04-30 18:17 | 53.26996 | 0.27104 | 33241 ft | 426 kts | 126° |
| 2026-04-30 18:18 | 53.22114 | 0.39487 | 33239 ft | 426 kts | 126° |
| 2026-04-30 18:18 | 53.18843 | 0.47742 | 33244 ft | 426 kts | 125° |
| 2026-04-30 18:19 | 53.15569 | 0.55992 | 33243 ft | 427 kts | 126° |
| 2026-04-30 18:19 | 53.12312 | 0.64165 | 33248 ft | 427 kts | 126° |
| 2026-04-30 18:20 | 53.09023 | 0.72382 | 33241 ft | 427 kts | 126° |
| 2026-04-30 18:20 | 53.05728 | 0.80600 | 33242 ft | 427 kts | 125° |
| 2026-04-30 18:21 | 53.02449 | 0.88749 | 33250 ft | 428 kts | 126° |
| 2026-04-30 18:21 | 52.99188 | 0.97002 | 33251 ft | 429 kts | 121° |
| 2026-04-30 18:22 | 52.97141 | 1.06318 | 33248 ft | 434 kts | 103° |
| 2026-04-30 18:22 | 52.95464 | 1.21088 | 33259 ft | 434 kts | 103° |
| 2026-04-30 18:23 | 52.94312 | 1.30859 | 33260 ft | 435 kts | 103° |
| 2026-04-30 18:23 | 52.93171 | 1.40528 | 33262 ft | 435 kts | 103° |
| 2026-04-30 18:24 | 52.91434 | 1.55272 | 33267 ft | 435 kts | 103° |
| 2026-04-30 18:25 | 52.90264 | 1.65033 | 33263 ft | 435 kts | 103° |
| 2026-04-30 18:25 | 52.88476 | 1.79768 | 33269 ft | 435 kts | 103° |
| 2026-04-30 18:26 | 52.86687 | 1.94426 | 33260 ft | 435 kts | 103° |
| 2026-04-30 18:27 | 52.84875 | 2.09147 | 33251 ft | 436 kts | 103° |
| 2026-04-30 18:28 | 52.83028 | 2.23888 | 33266 ft | 437 kts | 103° |
| 2026-04-30 18:28 | 52.81171 | 2.38642 | 33271 ft | 438 kts | 103° |
| 2026-04-30 18:29 | 52.78665 | 2.58253 | 33269 ft | 438 kts | 103° |
| 2026-04-30 18:30 | 52.76120 | 2.77891 | 33279 ft | 439 kts | 103° |
| 2026-04-30 18:31 | 52.74191 | 2.92652 | 33278 ft | 438 kts | 103° |
| 2026-04-30 18:32 | 52.72415 | 3.07440 | 33280 ft | 439 kts | 100° |
| 2026-04-30 18:33 | 52.71147 | 3.22390 | 33280 ft | 439 kts | 99° |
| 2026-04-30 18:33 | 52.69797 | 3.37314 | 33287 ft | 439 kts | 100° |
| 2026-04-30 18:34 | 52.68367 | 3.52159 | 33304 ft | 439 kts | 100° |
| 2026-04-30 18:35 | 52.67407 | 3.62070 | 33299 ft | 439 kts | 100° |
| 2026-04-30 18:35 | 52.66437 | 3.72004 | 33299 ft | 439 kts | 100° |
| 2026-04-30 18:36 | 52.64980 | 3.86882 | 33299 ft | 439 kts | 100° |
| 2026-04-30 18:37 | 52.63510 | 4.01689 | 33294 ft | 439 kts | 100° |
| 2026-04-30 18:37 | 52.62515 | 4.11595 | 33294 ft | 439 kts | 100° |
| 2026-04-30 18:38 | 52.61505 | 4.21492 | 33298 ft | 439 kts | 100° |
| 2026-04-30 18:38 | 52.60422 | 4.31365 | 33301 ft | 439 kts | 101° |
| 2026-04-30 18:39 | 52.59261 | 4.41211 | 33305 ft | 439 kts | 101° |
| 2026-04-30 18:39 | 52.58092 | 4.51051 | 33310 ft | 439 kts | 101° |
| 2026-04-30 18:40 | 52.56939 | 4.60834 | 33313 ft | 439 kts | 101° |
| 2026-04-30 18:40 | 52.55773 | 4.70674 | 33317 ft | 438 kts | 101° |
| 2026-04-30 18:41 | 52.55262 | 4.80626 | 33313 ft | 439 kts | 85° |
| 2026-04-30 18:41 | 52.56876 | 4.90251 | 33313 ft | 441 kts | 65° |
| 2026-04-30 18:41 | 52.58460 | 4.94580 | 33310 ft | 442 kts | 54° |
| 2026-04-30 18:42 | 52.59719 | 4.97216 | 33309 ft | 443 kts | 52° |
| 2026-04-30 18:42 | 52.66066 | 5.10440 | 33316 ft | 443 kts | 53° |
| 2026-04-30 18:45 | 52.79640 | 5.53434 | 33321 ft | 442 kts | 71° |
| 2026-04-30 18:45 | 52.81002 | 5.59785 | 33323 ft | 442 kts | 71° |
| 2026-04-30 18:46 | 52.82699 | 5.67754 | 33331 ft | 442 kts | 71° |
| 2026-04-30 18:46 | 52.84736 | 5.77343 | 33331 ft | 442 kts | 71° |
| 2026-04-30 18:47 | 52.86770 | 5.86933 | 33333 ft | 442 kts | 71° |
| 2026-04-30 18:47 | 52.88791 | 5.96550 | 33342 ft | 442 kts | 71° |
| 2026-04-30 18:48 | 52.90803 | 6.06165 | 33347 ft | 442 kts | 71° |
| 2026-04-30 18:48 | 52.92797 | 6.15731 | 33352 ft | 442 kts | 71° |
| 2026-04-30 18:49 | 52.94796 | 6.25356 | 33359 ft | 442 kts | 71° |
| 2026-04-30 18:49 | 52.96783 | 6.34992 | 33361 ft | 442 kts | 71° |
| 2026-04-30 18:50 | 52.98770 | 6.44630 | 33364 ft | 442 kts | 71° |
| 2026-04-30 18:50 | 53.00747 | 6.54310 | 33366 ft | 442 kts | 71° |
| 2026-04-30 18:51 | 53.02709 | 6.63970 | 33371 ft | 442 kts | 70° |
| 2026-04-30 18:51 | 53.05340 | 6.73178 | 33367 ft | 441 kts | 62° |
| 2026-04-30 18:52 | 53.08124 | 6.82233 | 33371 ft | 441 kts | 62° |
| 2026-04-30 18:52 | 53.10895 | 6.91281 | 33374 ft | 441 kts | 62° |
| 2026-04-30 18:53 | 53.13671 | 7.00397 | 33378 ft | 441 kts | 62° |
| 2026-04-30 18:53 | 53.16433 | 7.09520 | 33391 ft | 442 kts | 63° |
| 2026-04-30 18:54 | 53.19204 | 7.18665 | 33396 ft | 442 kts | 62° |
| 2026-04-30 18:54 | 53.21969 | 7.27832 | 33394 ft | 442 kts | 63° |
| 2026-04-30 18:55 | 53.24701 | 7.36947 | 33398 ft | 442 kts | 63° |
| 2026-04-30 18:55 | 53.28810 | 7.50754 | 33400 ft | 443 kts | 63° |
| 2026-04-30 18:56 | 53.32920 | 7.64592 | 33401 ft | 443 kts | 63° |
| 2026-04-30 18:57 | 53.37003 | 7.78438 | 33255 ft | 436 kts | 63° |
| 2026-04-30 18:57 | 53.38305 | 7.82882 | 32685 ft | 427 kts | 63° |
| 2026-04-30 18:57 | 53.39602 | 7.87316 | 32066 ft | 422 kts | 63° |
| 2026-04-30 18:58 | 53.42156 | 7.96046 | 30824 ft | 412 kts | 63° |
| 2026-04-30 18:58 | 53.43410 | 8.00341 | 30182 ft | 408 kts | 63° |
| 2026-04-30 18:58 | 53.44650 | 8.04594 | 29511 ft | 404 kts | 63° |
| 2026-04-30 18:59 | 53.47084 | 8.12961 | 28231 ft | 395 kts | 63° |
| 2026-04-30 19:00 | 53.50628 | 8.25194 | 26438 ft | 383 kts | 63° |
| 2026-04-30 19:00 | 53.51766 | 8.29158 | 25891 ft | 379 kts | 63° |
| 2026-04-30 19:00 | 53.54030 | 8.37058 | 24807 ft | 372 kts | 64° |
| 2026-04-30 19:01 | 53.56255 | 8.44840 | 23698 ft | 366 kts | 64° |
| 2026-04-30 19:01 | 53.57350 | 8.48674 | 23114 ft | 362 kts | 64° |
| 2026-04-30 19:02 | 53.59506 | 8.56237 | 22008 ft | 355 kts | 64° |
| 2026-04-30 19:02 | 53.61617 | 8.63655 | 20946 ft | 348 kts | 64° |
| 2026-04-30 19:03 | 53.63680 | 8.70932 | 19926 ft | 341 kts | 65° |
| 2026-04-30 19:03 | 53.65692 | 8.78046 | 18963 ft | 335 kts | 65° |
| 2026-04-30 19:04 | 53.67675 | 8.85083 | 17915 ft | 329 kts | 65° |
| 2026-04-30 19:04 | 53.69618 | 8.92008 | 16901 ft | 324 kts | 65° |
| 2026-04-30 19:05 | 53.71526 | 8.98828 | 15936 ft | 319 kts | 66° |
| 2026-04-30 19:05 | 53.73409 | 9.05566 | 15001 ft | 315 kts | 66° |
| 2026-04-30 19:06 | 53.75237 | 9.12113 | 14418 ft | 300 kts | 66° |
| 2026-04-30 19:06 | 53.76102 | 9.15235 | 14296 ft | 286 kts | 66° |
| 2026-04-30 19:06 | 53.77687 | 9.20975 | 14041 ft | 259 kts | 66° |
| 2026-04-30 19:07 | 53.79172 | 9.26369 | 13588 ft | 250 kts | 66° |
| 2026-04-30 19:07 | 53.79906 | 9.29035 | 13435 ft | 250 kts | 66° |
| 2026-04-30 19:08 | 53.81358 | 9.34372 | 13437 ft | 250 kts | 70° |
| 2026-04-30 19:08 | 53.81090 | 9.40007 | 13438 ft | 252 kts | 121° |
| 2026-04-30 19:08 | 53.79961 | 9.41913 | 13439 ft | 259 kts | 146° |
| 2026-04-30 19:09 | 53.76400 | 9.42117 | 13441 ft | 278 kts | 206° |
| 2026-04-30 19:09 | 53.74995 | 9.39846 | 13436 ft | 285 kts | 238° |
| 2026-04-30 19:09 | 53.74071 | 9.36861 | 13442 ft | 287 kts | 242° |
| 2026-04-30 19:10 | 53.72288 | 9.30841 | 13064 ft | 285 kts | 242° |
| 2026-04-30 19:10 | 53.71524 | 9.24505 | 12505 ft | 280 kts | 290° |
| 2026-04-30 19:11 | 53.72523 | 9.21818 | 12427 ft | 274 kts | 322° |
| 2026-04-30 19:11 | 53.75962 | 9.20434 | 12437 ft | 257 kts | 21° |
| 2026-04-30 19:11 | 53.77460 | 9.21931 | 12440 ft | 250 kts | 49° |
| 2026-04-30 19:12 | 53.78418 | 9.24334 | 12443 ft | 248 kts | 64° |
| 2026-04-30 19:12 | 53.79211 | 9.26928 | 12436 ft | 248 kts | 65° |
| 2026-04-30 19:12 | 53.79979 | 9.29527 | 12440 ft | 248 kts | 65° |
| 2026-04-30 19:13 | 53.81477 | 9.34776 | 12436 ft | 247 kts | 73° |
| 2026-04-30 19:13 | 53.80976 | 9.40265 | 12035 ft | 247 kts | 126° |
| 2026-04-30 19:13 | 53.79656 | 9.42076 | 11721 ft | 253 kts | 153° |
| 2026-04-30 19:14 | 53.77924 | 9.42622 | 11470 ft | 259 kts | 181° |
| 2026-04-30 19:14 | 53.76204 | 9.41636 | 11431 ft | 269 kts | 212° |
| 2026-04-30 19:14 | 53.74966 | 9.39276 | 11442 ft | 275 kts | 241° |
| 2026-04-30 19:14 | 53.74115 | 9.36364 | 11437 ft | 276 kts | 239° |
| 2026-04-30 19:15 | 53.72862 | 9.33993 | 11437 ft | 271 kts | 210° |
| 2026-04-30 19:15 | 53.69327 | 9.32348 | 11437 ft | 264 kts | 184° |
| 2026-04-30 19:15 | 53.67512 | 9.31907 | 11438 ft | 264 kts | 184° |
| 2026-04-30 19:16 | 53.65692 | 9.31470 | 11438 ft | 264 kts | 184° |
| 2026-04-30 19:16 | 53.63873 | 9.31034 | 11438 ft | 264 kts | 184° |
| 2026-04-30 19:16 | 53.60612 | 9.28483 | 11437 ft | 275 kts | 230° |
| 2026-04-30 19:17 | 53.59798 | 9.25581 | 11434 ft | 278 kts | 259° |
| 2026-04-30 19:17 | 53.60514 | 9.19309 | 11427 ft | 277 kts | 295° |
| 2026-04-30 19:17 | 53.61565 | 9.16637 | 11439 ft | 272 kts | 319° |
| 2026-04-30 19:18 | 53.64277 | 9.14384 | 11435 ft | 261 kts | 358° |
| 2026-04-30 19:18 | 53.66616 | 9.14947 | 11436 ft | 252 kts | 27° |
| 2026-04-30 19:18 | 53.68068 | 9.16529 | 11438 ft | 249 kts | 41° |
| 2026-04-30 19:19 | 53.69414 | 9.18314 | 11436 ft | 249 kts | 41° |
| 2026-04-30 19:19 | 53.70779 | 9.20121 | 11437 ft | 249 kts | 41° |
| 2026-04-30 19:19 | 53.73511 | 9.23735 | 11438 ft | 249 kts | 41° |
| 2026-04-30 19:20 | 53.74878 | 9.25538 | 11437 ft | 250 kts | 41° |
| 2026-04-30 19:20 | 53.76244 | 9.27344 | 11436 ft | 250 kts | 41° |
| 2026-04-30 19:20 | 53.78978 | 9.30962 | 11437 ft | 250 kts | 41° |
| 2026-04-30 19:21 | 53.80344 | 9.32774 | 11437 ft | 249 kts | 41° |
| 2026-04-30 19:21 | 53.83017 | 9.36458 | 11435 ft | 249 kts | 46° |
| 2026-04-30 19:22 | 53.84161 | 9.41650 | 11438 ft | 244 kts | 98° |
| 2026-04-30 19:22 | 53.80386 | 9.46399 | 11436 ft | 263 kts | 187° |
| 2026-04-30 19:23 | 53.75195 | 9.42926 | 11437 ft | 268 kts | 200° |
| 2026-04-30 19:24 | 53.71765 | 9.40440 | 11429 ft | 270 kts | 207° |
| 2026-04-30 19:24 | 53.70439 | 9.38261 | 11438 ft | 275 kts | 239° |
| 2026-04-30 19:24 | 53.69809 | 9.31925 | 11422 ft | 278 kts | 256° |
| 2026-04-30 19:25 | 53.65794 | 9.26680 | 10562 ft | 253 kts | 169° |
| 2026-04-30 19:26 | 53.62511 | 9.28552 | 9812 ft | 249 kts | 154° |
| 2026-04-30 19:26 | 53.60261 | 9.32472 | 8995 ft | 238 kts | 107° |
| 2026-04-30 19:26 | 53.59783 | 9.35126 | 8587 ft | 237 kts | 104° |
| 2026-04-30 19:27 | 53.58901 | 9.40495 | 7622 ft | 237 kts | 104° |
| 2026-04-30 19:27 | 53.58049 | 9.45707 | 6600 ft | 226 kts | 104° |
| 2026-04-30 19:28 | 53.57638 | 9.48242 | 6028 ft | 224 kts | 104° |
| 2026-04-30 19:28 | 53.55730 | 9.52031 | 5018 ft | 225 kts | 161° |
| 2026-04-30 19:29 | 53.52846 | 9.50607 | 4047 ft | 232 kts | 224° |
| 2026-04-30 19:29 | 53.51784 | 9.48540 | 3999 ft | 235 kts | 229° |
| 2026-04-30 19:30 | 53.48708 | 9.42123 | 4008 ft | 236 kts | 229° |
| 2026-04-30 19:30 | 53.46657 | 9.37816 | 4007 ft | 234 kts | 229° |
| 2026-04-30 19:31 | 53.44360 | 9.34062 | 4005 ft | 230 kts | 198° |
| 2026-04-30 19:31 | 53.42800 | 9.33854 | 4005 ft | 225 kts | 165° |
| 2026-04-30 19:31 | 53.40788 | 9.37372 | 4008 ft | 221 kts | 99° |
| 2026-04-30 19:32 | 53.40805 | 9.39952 | 4010 ft | 223 kts | 85° |
| 2026-04-30 19:32 | 53.40973 | 9.42501 | 4007 ft | 223 kts | 84° |
| 2026-04-30 19:32 | 53.41157 | 9.45084 | 4007 ft | 223 kts | 84° |
| 2026-04-30 19:32 | 53.41341 | 9.47668 | 4008 ft | 223 kts | 84° |
| 2026-04-30 19:33 | 53.41524 | 9.50249 | 4007 ft | 223 kts | 84° |
| 2026-04-30 19:33 | 53.41707 | 9.52830 | 4010 ft | 223 kts | 84° |
| 2026-04-30 19:33 | 53.41906 | 9.55401 | 4008 ft | 224 kts | 79° |
| 2026-04-30 19:33 | 53.42560 | 9.57765 | 4009 ft | 226 kts | 54° |
| 2026-04-30 19:34 | 53.43571 | 9.59797 | 4012 ft | 227 kts | 51° |
| 2026-04-30 19:34 | 53.44592 | 9.61807 | 4009 ft | 227 kts | 51° |
| 2026-04-30 19:34 | 53.46616 | 9.65834 | 4010 ft | 227 kts | 52° |
| 2026-04-30 19:35 | 53.47633 | 9.67865 | 4012 ft | 227 kts | 52° |
| 2026-04-30 19:35 | 53.48638 | 9.69872 | 4019 ft | 216 kts | 51° |
| 2026-04-30 19:35 | 53.49562 | 9.71718 | 3830 ft | 199 kts | 52° |
| 2026-04-30 19:35 | 53.50426 | 9.73446 | 3582 ft | 187 kts | 52° |
| 2026-04-30 19:36 | 53.51254 | 9.75105 | 3342 ft | 184 kts | 52° |
| 2026-04-30 19:36 | 53.52074 | 9.76750 | 3095 ft | 184 kts | 52° |
| 2026-04-30 19:36 | 53.53694 | 9.79999 | 2615 ft | 180 kts | 52° |
| 2026-04-30 19:37 | 53.54491 | 9.81599 | 2368 ft | 178 kts | 52° |
| 2026-04-30 19:37 | 53.55283 | 9.83191 | 2123 ft | 177 kts | 52° |
| 2026-04-30 19:37 | 53.56030 | 9.84690 | 1888 ft | 154 kts | 52° |
| 2026-04-30 19:37 | 53.56669 | 9.85973 | 1693 ft | 135 kts | 52° |
| 2026-04-30 19:38 | 53.57243 | 9.87128 | 1516 ft | 124 kts | 52° |
| 2026-04-30 19:38 | 53.57783 | 9.88216 | 1359 ft | 119 kts | 52° |
| 2026-04-30 19:38 | 53.58308 | 9.89274 | 1198 ft | 117 kts | 52° |
| 2026-04-30 19:38 | 53.58831 | 9.90330 | 1039 ft | 117 kts | 52° |
| 2026-04-30 19:39 | 53.59352 | 9.91376 | 872 ft | 116 kts | 52° |
| 2026-04-30 19:39 | 53.59866 | 9.92401 | 732 ft | 115 kts | 52° |
| 2026-04-30 19:39 | 53.60383 | 9.93453 | 584 ft | 115 kts | 54° |
| 2026-04-30 19:39 | 53.60887 | 9.94503 | 425 ft | 115 kts | 51° |
| 2026-04-30 19:40 | 53.61406 | 9.95527 | 248 ft | 115 kts | 52° |
| 2026-04-30 19:40 | 53.61914 | 9.96552 | 110 ft | 113 kts | 52° |
| 2026-04-30 19:40 | 53.62401 | 9.97549 | 52 ft | 99 kts | 51° |
| 2026-04-30 19:40 | 53.62728 | 9.98216 | 54 ft | 43 kts | 51° |
| 2026-04-30 19:41 | 53.62730 | 9.98357 | 53 ft | 11 kts | 141° |
| 2026-04-30 19:41 | 53.62671 | 9.98479 | 51 ft | 13 kts | 95° |
| 2026-04-30 19:41 | 53.62684 | 9.98536 | 50 ft | 2 kts | 57° |
| 2026-04-30 19:41 | 53.62733 | 9.98642 | 51 ft | 17 kts | 52° |
| 2026-04-30 19:42 | 53.62822 | 9.98816 | 51 ft | 22 kts | 45° |
| 2026-04-30 19:42 | 53.62909 | 9.98999 | 51 ft | 20 kts | 50° |
| 2026-04-30 19:42 | 53.62988 | 9.99160 | 51 ft | 17 kts | 51° |
| 2026-04-30 19:42 | 53.63066 | 9.99327 | 51 ft | 17 kts | 56° |
| 2026-04-30 19:43 | 53.63099 | 9.99407 | 52 ft | 13 kts | 54° |
| 2026-04-30 19:43 | 53.63189 | 9.99606 | 51 ft | 15 kts | 44° |
| 2026-04-30 19:43 | 53.63209 | 9.99646 | 51 ft | 0 kts | 50° |
| 2026-04-30 19:44 | 53.63225 | 9.99732 | 51 ft | 13 kts | 98° |
| 2026-04-30 19:44 | 53.63141 | 9.99831 | 51 ft | 17 kts | 153° |
| 2026-04-30 19:44 | 53.63049 | 9.99911 | 51 ft | 4 kts | 153° |
| 2026-04-30 19:44 | 53.63035 | 9.99923 | 51 ft | 4 kts | 153° |
| 2026-04-30 19:45 | 53.63008 | 9.99947 | 51 ft | 5 kts | 153° |
| 2026-04-30 19:45 | 53.62974 | 9.99976 | 51 ft | 9 kts | 153° |
| 2026-04-30 19:45 | 53.62964 | 10.00074 | 51 ft | 10 kts | 37° |
| 2026-04-30 19:45 | 53.63003 | 10.00147 | 51 ft | 3 kts | 88° |
| 2026-04-30 19:46 | 53.63001 | 10.00152 | 51 ft | 1 kts | 104° |
| 2026-04-30 19:46 | 53.62963 | 10.00164 | 49 ft | 10 kts | 153° |
| 2026-04-30 19:46 | 53.62937 | 10.00229 | 48 ft | 6 kts | 113° |
| 2026-04-30 19:46 | 53.62929 | 10.00274 | 51 ft | 0 kts | 105° |